sensor_id;sensor_type;location;lat;lon;timestamp;pressure;altitude;pressure_sealevel;temperature;humidity
71299;BME280;59083;47.974;21.722;2022-10-31T00:01:54;101181.22;;;11.77;100.00
71299;BME280;59083;47.974;21.722;2022-10-31T00:04:56;101185.56;;;11.78;100.00
71299;BME280;59083;47.974;21.722;2022-10-31T00:07:57;101182.72;;;11.72;100.00
71299;BME280;59083;47.974;21.722;2022-10-31T00:10:58;101184.88;;;11.68;100.00
71299;BME280;59083;47.974;21.722;2022-10-31T00:13:59;101181.88;;;11.71;100.00
71299;BME280;59083;47.974;21.722;2022-10-31T00:17:01;101183.25;;;11.67;100.00
71299;BME280;59083;47.974;21.722;2022-10-31T00:20:03;101184.56;;;11.71;100.00
71299;BME280;59083;47.974;21.722;2022-10-31T00:23:05;101181.22;;;11.69;100.00
71299;BME280;59083;47.974;21.722;2022-10-31T00:26:07;101182.41;;;11.67;100.00
71299;BME280;59083;47.974;21.722;2022-10-31T00:29:08;101174.56;;;11.65;100.00
71299;BME280;59083;47.974;21.722;2022-10-31T00:32:09;101178.91;;;11.66;100.00
71299;BME280;59083;47.974;21.722;2022-10-31T00:35:10;101172.56;;;11.67;100.00
71299;BME280;59083;47.974;21.722;2022-10-31T00:38:11;101168.25;;;11.66;100.00
71299;BME280;59083;47.974;21.722;2022-10-31T00:41:15;101170.91;;;11.66;100.00
71299;BME280;59083;47.974;21.722;2022-10-31T00:44:16;101173.22;;;11.69;100.00
71299;BME280;59083;47.974;21.722;2022-10-31T00:47:18;101170.28;;;11.56;100.00
71299;BME280;59083;47.974;21.722;2022-10-31T00:50:19;101169.63;;;11.54;100.00
71299;BME280;59083;47.974;21.722;2022-10-31T00:53:21;101175.28;;;11.59;100.00
71299;BME280;59083;47.974;21.722;2022-10-31T00:56:22;101180.25;;;11.62;100.00
71299;BME280;59083;47.974;21.722;2022-10-31T00:59:23;101173.75;;;11.65;100.00
71299;BME280;59083;47.974;21.722;2022-10-31T01:02:25;101176.88;;;11.68;100.00
71299;BME280;59083;47.974;21.722;2022-10-31T01:05:26;101165.19;;;11.69;100.00
71299;BME280;59083;47.974;21.722;2022-10-31T01:08:27;101169.56;;;11.62;100.00
71299;BME280;59083;47.974;21.722;2022-10-31T01:11:29;101174.09;;;11.62;100.00
71299;BME280;59083;47.974;21.722;2022-10-31T01:14:30;101179.25;;;11.63;100.00
71299;BME280;59083;47.974;21.722;2022-10-31T01:17:32;101174.91;;;11.62;100.00
71299;BME280;59083;47.974;21.722;2022-10-31T01:20:33;101175.56;;;11.64;100.00
71299;BME280;59083;47.974;21.722;2022-10-31T01:23:36;101167.94;;;11.61;100.00
71299;BME280;59083;47.974;21.722;2022-10-31T01:26:37;101167.94;;;11.61;100.00
71299;BME280;59083;47.974;21.722;2022-10-31T01:29:39;101166.25;;;11.60;100.00
71299;BME280;59083;47.974;21.722;2022-10-31T01:32:40;101170.25;;;11.64;100.00
71299;BME280;59083;47.974;21.722;2022-10-31T01:35:41;101166.72;;;11.64;100.00
71299;BME280;59083;47.974;21.722;2022-10-31T01:38:43;101157.25;;;11.61;100.00
71299;BME280;59083;47.974;21.722;2022-10-31T01:41:50;101165.56;;;11.66;100.00
71299;BME280;59083;47.974;21.722;2022-10-31T01:44:55;101164.59;;;11.59;100.00
71299;BME280;59083;47.974;21.722;2022-10-31T01:47:57;101164.59;;;11.59;100.00
71299;BME280;59083;47.974;21.722;2022-10-31T01:50:58;101164.22;;;11.62;100.00
71299;BME280;59083;47.974;21.722;2022-10-31T01:54:07;101158.25;;;11.60;100.00
71299;BME280;59083;47.974;21.722;2022-10-31T01:57:11;101157.94;;;11.55;100.00
71299;BME280;59083;47.974;21.722;2022-10-31T02:00:14;101157.28;;;11.53;100.00
71299;BME280;59083;47.974;21.722;2022-10-31T02:03:16;101151.28;;;11.51;100.00
71299;BME280;59083;47.974;21.722;2022-10-31T02:06:26;101152.94;;;11.52;100.00
71299;BME280;59083;47.974;21.722;2022-10-31T02:09:31;101152.59;;;11.55;100.00
71299;BME280;59083;47.974;21.722;2022-10-31T02:12:36;101161.63;;;11.54;100.00
71299;BME280;59083;47.974;21.722;2022-10-31T02:15:40;101162.63;;;11.53;100.00
71299;BME280;59083;47.974;21.722;2022-10-31T02:18:41;101162.47;;;11.54;100.00
71299;BME280;59083;47.974;21.722;2022-10-31T02:21:55;101158.94;;;11.54;100.00
71299;BME280;59083;47.974;21.722;2022-10-31T02:28:25;101163.75;;;11.58;100.00
71299;BME280;59083;47.974;21.722;2022-10-31T02:41:46;101151.78;;;11.54;100.00
71299;BME280;59083;47.974;21.722;2022-10-31T02:44:51;101153.59;;;11.54;100.00
71299;BME280;59083;47.974;21.722;2022-10-31T02:48:00;101155.44;;;11.53;100.00
71299;BME280;59083;47.974;21.722;2022-10-31T02:51:04;101162.47;;;11.54;100.00
71299;BME280;59083;47.974;21.722;2022-10-31T02:54:17;101149.75;;;11.56;100.00
71299;BME280;59083;47.974;21.722;2022-10-31T02:57:26;101160.25;;;11.58;100.00
71299;BME280;59083;47.974;21.722;2022-10-31T03:04:27;101152.94;;;11.52;100.00
71299;BME280;59083;47.974;21.722;2022-10-31T03:07:45;101161.31;;;11.49;100.00
71299;BME280;59083;47.974;21.722;2022-10-31T03:11:02;101157.44;;;11.51;100.00
71299;BME280;59083;47.974;21.722;2022-10-31T03:14:16;101159.28;;;11.51;100.00
71299;BME280;59083;47.974;21.722;2022-10-31T03:17:26;101159.94;;;11.53;100.00
71299;BME280;59083;47.974;21.722;2022-10-31T03:20:38;101160.78;;;11.53;100.00
71299;BME280;59083;47.974;21.722;2022-10-31T03:23:43;101161.25;;;11.57;100.00
71299;BME280;59083;47.974;21.722;2022-10-31T03:26:54;101164.28;;;11.54;100.00
71299;BME280;59083;47.974;21.722;2022-10-31T03:30:01;101159.63;;;11.56;100.00
71299;BME280;59083;47.974;21.722;2022-10-31T03:33:07;101167.12;;;11.52;100.00
71299;BME280;59083;47.974;21.722;2022-10-31T03:36:14;101163.63;;;11.52;100.00
71299;BME280;59083;47.974;21.722;2022-10-31T03:39:20;101169.31;;;11.49;100.00
71299;BME280;59083;47.974;21.722;2022-10-31T03:42:24;101167.28;;;11.51;100.00
71299;BME280;59083;47.974;21.722;2022-10-31T03:45:29;101176.97;;;11.52;100.00
71299;BME280;59083;47.974;21.722;2022-10-31T03:48:31;101177.31;;;11.49;100.00
71299;BME280;59083;47.974;21.722;2022-10-31T03:51:44;101181.66;;;11.50;100.00
71299;BME280;59083;47.974;21.722;2022-10-31T03:55:02;101185.66;;;11.46;100.00
71299;BME280;59083;47.974;21.722;2022-10-31T03:58:08;101181.31;;;11.45;100.00
71299;BME280;59083;47.974;21.722;2022-10-31T04:01:15;101171.69;;;11.44;100.00
71299;BME280;59083;47.974;21.722;2022-10-31T04:04:19;101162.00;;;11.43;100.00
71299;BME280;59083;47.974;21.722;2022-10-31T04:07:27;101166.34;;;11.44;100.00
71299;BME280;59083;47.974;21.722;2022-10-31T04:10:29;101177.34;;;11.41;100.00
71299;BME280;59083;47.974;21.722;2022-10-31T04:13:33;101177.34;;;11.41;100.00
71299;BME280;59083;47.974;21.722;2022-10-31T04:16:40;101184.00;;;11.45;100.00
71299;BME280;59083;47.974;21.722;2022-10-31T04:19:43;101175.19;;;11.44;100.00
71299;BME280;59083;47.974;21.722;2022-10-31T04:22:44;101184.34;;;11.42;100.00
71299;BME280;59083;47.974;21.722;2022-10-31T04:25:46;101174.69;;;11.41;100.00
71299;BME280;59083;47.974;21.722;2022-10-31T04:28:47;101175.69;;;11.40;100.00
71299;BME280;59083;47.974;21.722;2022-10-31T04:31:48;101181.69;;;11.42;100.00
71299;BME280;59083;47.974;21.722;2022-10-31T04:34:49;101183.38;;;11.35;100.00
71299;BME280;59083;47.974;21.722;2022-10-31T04:37:51;101179.72;;;11.36;100.00
71299;BME280;59083;47.974;21.722;2022-10-31T04:40:53;101185.87;;;11.36;100.00
71299;BME280;59083;47.974;21.722;2022-10-31T04:43:55;101184.22;;;11.35;100.00
71299;BME280;59083;47.974;21.722;2022-10-31T04:46:57;101189.06;;;11.32;100.00
71299;BME280;59083;47.974;21.722;2022-10-31T04:49:58;101189.06;;;11.32;100.00
71299;BME280;59083;47.974;21.722;2022-10-31T04:53:00;101193.09;;;11.28;100.00
71299;BME280;59083;47.974;21.722;2022-10-31T04:56:01;101185.41;;;11.25;100.00
71299;BME280;59083;47.974;21.722;2022-10-31T04:59:07;101194.59;;;11.22;100.00
71299;BME280;59083;47.974;21.722;2022-10-31T05:02:09;101193.78;;;11.22;100.00
71299;BME280;59083;47.974;21.722;2022-10-31T05:05:12;101193.59;;;11.23;100.00
71299;BME280;59083;47.974;21.722;2022-10-31T05:08:14;101192.59;;;11.24;100.00
71299;BME280;59083;47.974;21.722;2022-10-31T05:11:16;101185.41;;;11.25;100.00
71299;BME280;59083;47.974;21.722;2022-10-31T05:14:17;101191.12;;;11.22;100.00
71299;BME280;59083;47.974;21.722;2022-10-31T05:17:25;101189.91;;;11.24;100.00
71299;BME280;59083;47.974;21.722;2022-10-31T05:20:29;101193.78;;;11.22;100.00
71299;BME280;59083;47.974;21.722;2022-10-31T05:23:32;101192.94;;;11.21;100.00
71299;BME280;59083;47.974;21.722;2022-10-31T05:26:34;101199.94;;;11.22;100.00
71299;BME280;59083;47.974;21.722;2022-10-31T05:29:35;101203.09;;;11.26;100.00
71299;BME280;59083;47.974;21.722;2022-10-31T05:32:48;101206.44;;;11.28;100.00
71299;BME280;59083;47.974;21.722;2022-10-31T05:35:52;101213.41;;;11.29;100.00
71299;BME280;59083;47.974;21.722;2022-10-31T05:38:54;101207.94;;;11.22;100.00
71299;BME280;59083;47.974;21.722;2022-10-31T05:41:55;101204.09;;;11.25;100.00
71299;BME280;59083;47.974;21.722;2022-10-31T05:44:56;101207.09;;;11.30;100.00
71299;BME280;59083;47.974;21.722;2022-10-31T05:48:00;101207.13;;;11.22;100.00
71299;BME280;59083;47.974;21.722;2022-10-31T05:51:04;101211.94;;;11.26;100.00
71299;BME280;59083;47.974;21.722;2022-10-31T05:54:06;101208.28;;;11.27;100.00
71299;BME280;59083;47.974;21.722;2022-10-31T05:57:07;101214.09;;;11.31;100.00
71299;BME280;59083;47.974;21.722;2022-10-31T06:00:09;101221.09;;;11.32;100.00
71299;BME280;59083;47.974;21.722;2022-10-31T06:03:21;101221.09;;;11.32;100.00
71299;BME280;59083;47.974;21.722;2022-10-31T06:06:23;101226.44;;;11.32;100.00
71299;BME280;59083;47.974;21.722;2022-10-31T06:09:25;101226.06;;;11.35;100.00
71299;BME280;59083;47.974;21.722;2022-10-31T06:12:26;101231.72;;;11.40;100.00
71299;BME280;59083;47.974;21.722;2022-10-31T06:15:30;101238.91;;;11.39;100.00
71299;BME280;59083;47.974;21.722;2022-10-31T06:18:32;101240.25;;;11.35;100.00
71299;BME280;59083;47.974;21.722;2022-10-31T06:21:34;101242.94;;;11.35;100.00
71299;BME280;59083;47.974;21.722;2022-10-31T06:24:35;101240.09;;;11.37;100.00
71299;BME280;59083;47.974;21.722;2022-10-31T06:27:37;101248.78;;;11.39;100.00
71299;BME280;59083;47.974;21.722;2022-10-31T06:30:39;101251.09;;;11.42;100.00
71299;BME280;59083;47.974;21.722;2022-10-31T06:33:43;101253.41;;;11.45;100.00
71299;BME280;59083;47.974;21.722;2022-10-31T06:36:46;101248.06;;;11.45;100.00
71299;BME280;59083;47.974;21.722;2022-10-31T06:39:47;101250.41;;;11.48;100.00
71299;BME280;59083;47.974;21.722;2022-10-31T06:43:07;101246.22;;;11.53;100.00
71299;BME280;59083;47.974;21.722;2022-10-31T06:46:09;101253.53;;;11.51;100.00
71299;BME280;59083;47.974;21.722;2022-10-31T06:49:13;101260.03;;;11.57;100.00
71299;BME280;59083;47.974;21.722;2022-10-31T06:52:14;101259.56;;;11.53;100.00
71299;BME280;59083;47.974;21.722;2022-10-31T06:55:16;101263.22;;;11.52;100.00
71299;BME280;59083;47.974;21.722;2022-10-31T06:58:17;101260.06;;;11.49;100.00
71299;BME280;59083;47.974;21.722;2022-10-31T07:01:19;101260.37;;;11.54;100.00
71299;BME280;59083;47.974;21.722;2022-10-31T07:04:20;101269.41;;;11.53;100.00
71299;BME280;59083;47.974;21.722;2022-10-31T07:07:22;101275.94;;;11.50;100.00
71299;BME280;59083;47.974;21.722;2022-10-31T07:10:26;101270.22;;;11.53;100.00
71299;BME280;59083;47.974;21.722;2022-10-31T07:13:28;101262.59;;;11.50;100.00
71299;BME280;59083;47.974;21.722;2022-10-31T07:16:29;101255.06;;;11.54;100.00
71299;BME280;59083;47.974;21.722;2022-10-31T07:19:31;101257.56;;;11.47;100.00
71299;BME280;59083;47.974;21.722;2022-10-31T07:22:34;101255.38;;;11.51;100.00
71299;BME280;59083;47.974;21.722;2022-10-31T07:25:38;101243.69;;;11.52;100.00
71299;BME280;59083;47.974;21.722;2022-10-31T07:28:39;101243.69;;;11.52;100.00
71299;BME280;59083;47.974;21.722;2022-10-31T07:31:41;101240.50;;;11.56;100.00
71299;BME280;59083;47.974;21.722;2022-10-31T07:34:45;101266.03;;;11.59;100.00
71299;BME280;59083;47.974;21.722;2022-10-31T07:37:47;101260.53;;;11.60;100.00
71299;BME280;59083;47.974;21.722;2022-10-31T07:40:50;101268.56;;;11.60;100.00
71299;BME280;59083;47.974;21.722;2022-10-31T07:43:53;101273.87;;;11.60;100.00
71299;BME280;59083;47.974;21.722;2022-10-31T07:46:56;101262.38;;;11.60;100.00
71299;BME280;59083;47.974;21.722;2022-10-31T07:50:00;101266.41;;;11.56;100.00
71299;BME280;59083;47.974;21.722;2022-10-31T07:53:12;101264.72;;;11.55;100.00
71299;BME280;59083;47.974;21.722;2022-10-31T07:56:16;101259.88;;;11.58;100.00
71299;BME280;59083;47.974;21.722;2022-10-31T07:59:17;101262.38;;;11.60;100.00
71299;BME280;59083;47.974;21.722;2022-10-31T08:02:18;101253.91;;;11.48;100.00
71299;BME280;59083;47.974;21.722;2022-10-31T08:05:24;101269.88;;;11.56;100.00
71299;BME280;59083;47.974;21.722;2022-10-31T08:08:33;101267.72;;;11.60;100.00
71299;BME280;59083;47.974;21.722;2022-10-31T08:11:34;101276.03;;;11.65;100.00
71299;BME280;59083;47.974;21.722;2022-10-31T08:14:36;101280.19;;;11.68;100.00
71299;BME280;59083;47.974;21.722;2022-10-31T08:17:38;101274.03;;;11.67;100.00
71299;BME280;59083;47.974;21.722;2022-10-31T08:20:39;101282.69;;;11.69;100.00
71299;BME280;59083;47.974;21.722;2022-10-31T08:23:41;101290.75;;;11.61;100.00
71299;BME280;59083;47.974;21.722;2022-10-31T08:26:42;101287.03;;;11.62;100.00
71299;BME280;59083;47.974;21.722;2022-10-31T08:29:44;101290.06;;;11.67;100.00
71299;BME280;59083;47.974;21.722;2022-10-31T08:32:47;101285.19;;;11.71;100.00
71299;BME280;59083;47.974;21.722;2022-10-31T08:35:58;101291.03;;;11.74;100.00
71299;BME280;59083;47.974;21.722;2022-10-31T08:39:03;101289.69;;;11.70;100.00
71299;BME280;59083;47.974;21.722;2022-10-31T08:42:05;101294.75;;;11.73;100.00
71299;BME280;59083;47.974;21.722;2022-10-31T08:45:06;101293.19;;;11.71;100.00
71299;BME280;59083;47.974;21.722;2022-10-31T08:48:15;101289.56;;;11.64;100.00
71299;BME280;59083;47.974;21.722;2022-10-31T08:51:16;101294.75;;;11.73;100.00
71299;BME280;59083;47.974;21.722;2022-10-31T08:54:18;101297.72;;;11.78;100.00
71299;BME280;59083;47.974;21.722;2022-10-31T08:57:20;101295.38;;;11.83;100.00
71299;BME280;59083;47.974;21.722;2022-10-31T09:00:21;101295.38;;;11.83;100.00
71299;BME280;59083;47.974;21.722;2022-10-31T09:03:30;101288.00;;;11.85;100.00
71299;BME280;59083;47.974;21.722;2022-10-31T09:06:32;101295.50;;;11.90;100.00
71299;BME280;59083;47.974;21.722;2022-10-31T09:09:33;101295.38;;;11.83;100.00
71299;BME280;59083;47.974;21.722;2022-10-31T09:12:35;101296.31;;;11.90;100.00
71299;BME280;59083;47.974;21.722;2022-10-31T09:15:40;101297.97;;;11.91;100.00
71299;BME280;59083;47.974;21.722;2022-10-31T09:18:43;101303.00;;;11.94;100.00
71299;BME280;59083;47.974;21.722;2022-10-31T09:21:44;101297.66;;;11.94;100.00
71299;BME280;59083;47.974;21.722;2022-10-31T09:24:46;101297.28;;;11.97;100.00
71299;BME280;59083;47.974;21.722;2022-10-31T09:27:47;101297.28;;;11.97;100.00
71299;BME280;59083;47.974;21.722;2022-10-31T09:30:51;101301.94;;;12.04;100.00
71299;BME280;59083;47.974;21.722;2022-10-31T09:33:53;101301.94;;;12.04;100.00
71299;BME280;59083;47.974;21.722;2022-10-31T09:36:57;101306.59;;;12.10;100.00
71299;BME280;59083;47.974;21.722;2022-10-31T09:39:58;101293.91;;;12.12;100.00
71299;BME280;59083;47.974;21.722;2022-10-31T09:52:47;101322.63;;;12.10;100.00
71299;BME280;59083;47.974;21.722;2022-10-31T09:55:53;101322.28;;;12.13;100.00
71299;BME280;59083;47.974;21.722;2022-10-31T09:58:58;101310.25;;;12.09;100.00
71299;BME280;59083;47.974;21.722;2022-10-31T10:02:06;101307.78;;;12.07;100.00
71299;BME280;59083;47.974;21.722;2022-10-31T10:05:22;101310.94;;;12.11;100.00
71299;BME280;59083;47.974;21.722;2022-10-31T10:08:29;101316.44;;;12.09;100.00
71299;BME280;59083;47.974;21.722;2022-10-31T10:15:26;101318.25;;;12.17;100.00
71299;BME280;59083;47.974;21.722;2022-10-31T10:21:54;101317.59;;;12.15;100.00
71299;BME280;59083;47.974;21.722;2022-10-31T10:28:35;101320.75;;;12.18;100.00
71299;BME280;59083;47.974;21.722;2022-10-31T10:31:41;101309.69;;;12.21;100.00
71299;BME280;59083;47.974;21.722;2022-10-31T10:34:52;101320.06;;;12.24;100.00
71299;BME280;59083;47.974;21.722;2022-10-31T10:38:10;101310.19;;;12.25;100.00
71299;BME280;59083;47.974;21.722;2022-10-31T10:41:16;101303.53;;;12.21;100.00
71299;BME280;59083;47.974;21.722;2022-10-31T10:44:18;101306.50;;;12.26;100.00
71299;BME280;59083;47.974;21.722;2022-10-31T10:47:20;101318.03;;;12.26;100.00
71299;BME280;59083;47.974;21.722;2022-10-31T10:50:47;101296.09;;;12.31;100.00
71299;BME280;59083;47.974;21.722;2022-10-31T10:57:57;101298.44;;;12.34;100.00
71299;BME280;59083;47.974;21.722;2022-10-31T11:00:59;101299.62;;;12.31;100.00
71299;BME280;59083;47.974;21.722;2022-10-31T11:04:02;101288.94;;;12.31;100.00
71299;BME280;59083;47.974;21.722;2022-10-31T11:07:09;101281.09;;;12.30;100.00
71299;BME280;59083;47.974;21.722;2022-10-31T11:10:15;101281.09;;;12.30;100.00
71299;BME280;59083;47.974;21.722;2022-10-31T11:13:23;101285.63;;;12.29;100.00
71299;BME280;59083;47.974;21.722;2022-10-31T11:16:30;101279.44;;;12.29;100.00
71299;BME280;59083;47.974;21.722;2022-10-31T11:19:31;101281.09;;;12.30;100.00
71299;BME280;59083;47.974;21.722;2022-10-31T11:22:33;101273.72;;;12.32;100.00
71299;BME280;59083;47.974;21.722;2022-10-31T11:25:34;101282.75;;;12.31;100.00
71299;BME280;59083;47.974;21.722;2022-10-31T11:28:35;101283.03;;;12.36;100.00
71299;BME280;59083;47.974;21.722;2022-10-31T11:31:36;101276.91;;;12.35;100.00
71299;BME280;59083;47.974;21.722;2022-10-31T11:34:44;101271.34;;;12.37;100.00
71299;BME280;59083;47.974;21.722;2022-10-31T11:37:49;101278.53;;;12.36;100.00
71299;BME280;59083;47.974;21.722;2022-10-31T11:40:58;101275.03;;;12.36;100.00
71299;BME280;59083;47.974;21.722;2022-10-31T11:44:09;101282.41;;;12.34;100.00
71299;BME280;59083;47.974;21.722;2022-10-31T11:47:14;101269.44;;;12.23;100.00
71299;BME280;59083;47.974;21.722;2022-10-31T11:50:24;101270.41;;;12.30;100.00
71299;BME280;59083;47.974;21.722;2022-10-31T11:53:30;101278.59;;;12.28;100.00
71299;BME280;59083;47.974;21.722;2022-10-31T11:56:41;101271.13;;;12.24;100.00
71299;BME280;59083;47.974;21.722;2022-10-31T11:59:51;101276.50;;;12.16;100.00
71299;BME280;59083;47.974;21.722;2022-10-31T12:06:11;101268.44;;;12.24;100.00
71299;BME280;59083;47.974;21.722;2022-10-31T12:09:24;101263.09;;;12.24;100.00
71299;BME280;59083;47.974;21.722;2022-10-31T12:12:37;101267.41;;;12.25;100.00
71299;BME280;59083;47.974;21.722;2022-10-31T12:15:47;101269.44;;;12.23;100.00
71299;BME280;59083;47.974;21.722;2022-10-31T12:22:08;101262.81;;;12.19;100.00
71299;BME280;59083;47.974;21.722;2022-10-31T12:25:19;101264.13;;;12.15;100.00
71299;BME280;59083;47.974;21.722;2022-10-31T12:28:44;101268.31;;;12.17;100.00
71299;BME280;59083;47.974;21.722;2022-10-31T12:32:27;101263.84;;;12.10;100.00
71299;BME280;59083;47.974;21.722;2022-10-31T12:52:16;101261.53;;;12.07;100.00
71299;BME280;59083;47.974;21.722;2022-10-31T12:58:56;101263.22;;;11.99;100.00
71299;BME280;59083;47.974;21.722;2022-10-31T13:02:10;101254.53;;;12.06;100.00
71299;BME280;59083;47.974;21.722;2022-10-31T13:05:30;101265.75;;;12.01;100.00
71299;BME280;59083;47.974;21.722;2022-10-31T13:08:51;101257.66;;;12.09;100.00
71299;BME280;59083;47.974;21.722;2022-10-31T13:12:08;101257.19;;;12.06;100.00
71299;BME280;59083;47.974;21.722;2022-10-31T13:15:50;101260.03;;;12.04;100.00
71299;BME280;59083;47.974;21.722;2022-10-31T13:22:36;101258.72;;;12.00;100.00
71299;BME280;59083;47.974;21.722;2022-10-31T13:25:43;101260.87;;;12.05;100.00
71299;BME280;59083;47.974;21.722;2022-10-31T13:29:14;101255.16;;;12.08;100.00
71299;BME280;59083;47.974;21.722;2022-10-31T13:32:18;101253.50;;;12.07;100.00
71299;BME280;59083;47.974;21.722;2022-10-31T13:45:11;101260.87;;;12.05;100.00
71299;BME280;59083;47.974;21.722;2022-10-31T13:51:25;101262.16;;;12.09;100.00
71299;BME280;59083;47.974;21.722;2022-10-31T13:54:33;101269.56;;;12.07;100.00
71299;BME280;59083;47.974;21.722;2022-10-31T13:57:41;101266.22;;;12.05;100.00
71299;BME280;59083;47.974;21.722;2022-10-31T14:00:43;101265.22;;;12.06;100.00
71299;BME280;59083;47.974;21.722;2022-10-31T14:03:55;101262.53;;;12.06;100.00
71299;BME280;59083;47.974;21.722;2022-10-31T14:07:09;101263.53;;;12.05;100.00
71299;BME280;59083;47.974;21.722;2022-10-31T14:10:25;101269.88;;;12.04;100.00
71299;BME280;59083;47.974;21.722;2022-10-31T14:13:32;101266.56;;;12.02;100.00
71299;BME280;59083;47.974;21.722;2022-10-31T14:16:42;101268.91;;;11.96;100.00
71299;BME280;59083;47.974;21.722;2022-10-31T14:19:56;101281.63;;;11.94;100.00
71299;BME280;59083;47.974;21.722;2022-10-31T14:22:58;101267.25;;;11.95;100.00
71299;BME280;59083;47.974;21.722;2022-10-31T14:29:33;101274.63;;;11.93;100.00
71299;BME280;59083;47.974;21.722;2022-10-31T14:32:34;101269.28;;;11.93;100.00
71299;BME280;59083;47.974;21.722;2022-10-31T14:39:32;101267.59;;;11.92;100.00
71299;BME280;59083;47.974;21.722;2022-10-31T14:42:54;101270.09;;;11.94;100.00
71299;BME280;59083;47.974;21.722;2022-10-31T14:52:47;101267.97;;;11.89;100.00
71299;BME280;59083;47.974;21.722;2022-10-31T14:55:52;101268.28;;;11.86;100.00
71299;BME280;59083;47.974;21.722;2022-10-31T14:58:57;101271.31;;;11.83;100.00
71299;BME280;59083;47.974;21.722;2022-10-31T15:02:06;101269.00;;;11.80;100.00
71299;BME280;59083;47.974;21.722;2022-10-31T15:05:11;101274.69;;;11.77;100.00
71299;BME280;59083;47.974;21.722;2022-10-31T15:08:33;101271.84;;;11.79;100.00
71299;BME280;59083;47.974;21.722;2022-10-31T15:11:37;101269.34;;;11.77;100.00
71299;BME280;59083;47.974;21.722;2022-10-31T15:14:39;101272.84;;;11.78;100.00
71299;BME280;59083;47.974;21.722;2022-10-31T15:17:44;101281.69;;;11.78;100.00
71299;BME280;59083;47.974;21.722;2022-10-31T15:20:46;101266.00;;;11.75;100.00
71299;BME280;59083;47.974;21.722;2022-10-31T15:23:50;101271.34;;;11.75;100.00
71299;BME280;59083;47.974;21.722;2022-10-31T15:26:53;101264.34;;;11.74;100.00
71299;BME280;59083;47.974;21.722;2022-10-31T15:29:56;101264.34;;;11.74;100.00
71299;BME280;59083;47.974;21.722;2022-10-31T15:32:57;101268.03;;;11.73;100.00
71299;BME280;59083;47.974;21.722;2022-10-31T15:36:00;101281.19;;;11.75;100.00
71299;BME280;59083;47.974;21.722;2022-10-31T15:39:02;101270.72;;;11.73;100.00
71299;BME280;59083;47.974;21.722;2022-10-31T15:42:03;101268.03;;;11.73;100.00
71299;BME280;59083;47.974;21.722;2022-10-31T15:45:17;101273.38;;;11.73;100.00
71299;BME280;59083;47.974;21.722;2022-10-31T15:48:22;101268.03;;;11.65;100.00
71299;BME280;59083;47.974;21.722;2022-10-31T15:51:26;101271.03;;;11.62;100.00
71299;BME280;59083;47.974;21.722;2022-10-31T15:54:28;101267.87;;;11.58;100.00
71299;BME280;59083;47.974;21.722;2022-10-31T15:57:30;101277.41;;;11.61;100.00
71299;BME280;59083;47.974;21.722;2022-10-31T16:00:34;101280.06;;;11.61;100.00
71299;BME280;59083;47.974;21.722;2022-10-31T16:03:35;101276.94;;;11.49;100.00
71299;BME280;59083;47.974;21.722;2022-10-31T16:06:37;101280.38;;;11.58;100.00
71299;BME280;59083;47.974;21.722;2022-10-31T16:09:52;101278.72;;;11.57;100.00
71299;BME280;59083;47.974;21.722;2022-10-31T16:12:53;101284.37;;;11.62;100.00
71299;BME280;59083;47.974;21.722;2022-10-31T16:16:03;101287.87;;;11.63;100.00
71299;BME280;59083;47.974;21.722;2022-10-31T16:19:24;101282.72;;;11.61;100.00
71299;BME280;59083;47.974;21.722;2022-10-31T16:22:35;101278.72;;;11.57;100.00
71299;BME280;59083;47.974;21.722;2022-10-31T16:25:38;101279.06;;;11.54;100.00
71299;BME280;59083;47.974;21.722;2022-10-31T16:28:51;101273.38;;;11.57;100.00
71299;BME280;59083;47.974;21.722;2022-10-31T16:31:53;101281.59;;;11.55;100.00
71299;BME280;59083;47.974;21.722;2022-10-31T16:35:23;101287.25;;;11.52;100.00
71299;BME280;59083;47.974;21.722;2022-10-31T16:38:26;101288.44;;;11.50;100.00
71299;BME280;59083;47.974;21.722;2022-10-31T16:41:28;101295.78;;;11.48;100.00
71299;BME280;59083;47.974;21.722;2022-10-31T16:44:29;101288.44;;;11.42;100.00
71299;BME280;59083;47.974;21.722;2022-10-31T16:47:30;101285.78;;;11.42;100.00
71299;BME280;59083;47.974;21.722;2022-10-31T16:50:32;101287.59;;;11.49;100.00
71299;BME280;59083;47.974;21.722;2022-10-31T16:53:33;101289.75;;;11.54;100.00
71299;BME280;59083;47.974;21.722;2022-10-31T16:56:36;101291.44;;;11.55;100.00
71299;BME280;59083;47.974;21.722;2022-10-31T16:59:38;101289.41;;;11.57;100.00
71299;BME280;59083;47.974;21.722;2022-10-31T17:02:39;101304.09;;;11.53;100.00
71299;BME280;59083;47.974;21.722;2022-10-31T17:05:40;101295.94;;;11.54;100.00
71299;BME280;59083;47.974;21.722;2022-10-31T17:08:41;101304.78;;;11.55;100.00
71299;BME280;59083;47.974;21.722;2022-10-31T17:11:46;101302.94;;;11.55;100.00
71299;BME280;59083;47.974;21.722;2022-10-31T17:14:50;101299.25;;;11.56;100.00
71299;BME280;59083;47.974;21.722;2022-10-31T17:17:53;101307.09;;;11.58;100.00
71299;BME280;59083;47.974;21.722;2022-10-31T17:20:56;101307.44;;;11.55;100.00
71299;BME280;59083;47.974;21.722;2022-10-31T17:23:59;101310.63;;;11.50;100.00